yodiz.com alexa rank chart, yodiz.com alexa rank daily changes

yodiz.com alexa rank chart, yodiz.com alexa rank daily changes

yodiz.com
Actual rank:
147 218

RANK HISTORY

Date Rank Diff
2017/07/27 147 218 -1 541
2017/07/26 148 759 -2 899
2017/07/25 151 658 +2 759
2017/07/24 148 899 +5 776
2017/07/23 143 123 -1 656
2017/07/22 144 779 +121
2017/07/21 144 658 +1 783
2017/07/20 142 875 -3 793
2017/07/19 146 668 -3 762
2017/07/18 150 430 +934
2017/07/17 149 496 +922
2017/07/16 148 574 -1 738
2017/07/15 150 312 +1 159
2017/07/14 149 153 -163
2017/07/13 149 316 -3 144
2017/07/12 152 460 -777
2017/07/11 153 237 +717
2017/07/10 152 520 +1 392
2017/07/09 151 128 +657
2017/07/08 150 471 +972
2017/07/07 149 499 -4 282
2017/07/06 153 781 -301
2017/07/05 154 082 -5 692
2017/07/04 159 774 +856
2017/07/03 158 918 +1 765
2017/07/02 157 153 +1 324
2017/07/01 155 829 +1 124
2017/06/30 154 705 -152
2017/06/29 154 857 +602
2017/06/28 154 255 -674
2017/06/27 154 929 +324
2017/06/26 154 605 +5 479
2017/06/25 149 126 +359
2017/06/24 148 767 -5 174
2017/06/23 153 941 -3 803
2017/06/22 157 744 -3 047
2017/06/21 160 791 -2 747
2017/06/20 163 538 +1 600
2017/06/19 161 938 +2 260
2017/06/18 159 678 +2 372
2017/06/17 157 306 +2 208
2017/06/16 155 098 -916
2017/06/15 156 014 -2 273
2017/06/14 158 287 -1 920
2017/06/13 160 207 +3 498
2017/06/12 156 709 +3 722
2017/06/11 152 987 +3 361
2017/06/10 149 626 +1 726
2017/06/09 147 900 +547
2017/06/08 147 353 -1 649
2017/06/07 149 002 +4 472
2017/06/06 144 530 +1 482
2017/06/05 143 048 +4 576
2017/06/04 138 472 +1 180
2017/06/03 137 292 +1 673
2017/06/02 135 619 -2 328
2017/06/01 137 947 +482
2017/05/31 137 465 -95
2017/05/30 137 560 +2 917
2017/05/29 134 643 +1 884
2017/05/28 132 759

WIDGET FOR YOUR SITE

DOMAINS WITH THE NEAREST RANK

Domain Rank
amanbo.co.ke 147 213
viraldiario.com 147 214
ritlabs.com 147 215
find-music.net 147 216
patiliyo.com 147 217
yodiz.com 147 218
bulletproofsub.blogspot.com 147 219
sengokugifu.jp 147 220
maxhtml.com 147 221
w2beauty.com 147 222
audio-class.ru 147 223

DOMAINS WITH THE NEAREST RANK BY TLD .com

Domain Rank
emlakpencerem.com 147 206
webcheatsheet.com 147 211
viraldiario.com 147 214
ritlabs.com 147 215
patiliyo.com 147 217
yodiz.com 147 218
maxhtml.com 147 221
w2beauty.com 147 222
audiokinetic.com 147 224
triib.com 147 226
talicai.com 147 229